sensor_id;sensor_type;location;lat;lon;timestamp;pressure;altitude;pressure_sealevel;temperature;humidity
6464;BME280;3265;42.694;23.282;2023-03-13T00:01:34;94872.72;;;2.41;63.31
6464;BME280;3265;42.694;23.282;2023-03-13T00:04:02;94867.09;;;2.46;62.82
6464;BME280;3265;42.694;23.282;2023-03-13T00:06:31;94858.47;;;2.39;62.29
6464;BME280;3265;42.694;23.282;2023-03-13T00:08:58;94869.00;;;2.52;62.30
6464;BME280;3265;42.694;23.282;2023-03-13T00:11:26;94876.53;;;2.53;62.46
6464;BME280;3265;42.694;23.282;2023-03-13T00:13:53;94876.84;;;2.58;61.83
6464;BME280;3265;42.694;23.282;2023-03-13T00:16:20;94875.72;;;2.61;60.85
6464;BME280;3265;42.694;23.282;2023-03-13T00:18:48;94878.31;;;2.53;61.54
6464;BME280;3265;42.694;23.282;2023-03-13T00:21:16;94880.09;;;2.44;61.64
6464;BME280;3265;42.694;23.282;2023-03-13T00:23:45;94874.47;;;2.41;62.08
6464;BME280;3265;42.694;23.282;2023-03-13T00:26:13;94873.38;;;2.27;61.80
6464;BME280;3265;42.694;23.282;2023-03-13T00:28:41;94874.03;;;2.13;62.31
6464;BME280;3265;42.694;23.282;2023-03-13T00:31:10;94883.47;;;2.04;62.51
6464;BME280;3265;42.694;23.282;2023-03-13T00:33:39;94875.31;;;1.85;62.95
6464;BME280;3265;42.694;23.282;2023-03-13T00:36:08;94878.97;;;1.74;63.21
6464;BME280;3265;42.694;23.282;2023-03-13T00:38:35;94878.97;;;1.66;63.69
6464;BME280;3265;42.694;23.282;2023-03-13T00:41:05;94870.78;;;1.54;64.33
6464;BME280;3265;42.694;23.282;2023-03-13T00:43:39;94862.91;;;1.48;64.61
6464;BME280;3265;42.694;23.282;2023-03-13T00:46:09;94879.75;;;1.66;64.41
6464;BME280;3265;42.694;23.282;2023-03-13T00:48:51;94872.41;;;1.55;64.43
6464;BME280;3265;42.694;23.282;2023-03-13T00:51:20;94881.34;;;1.59;64.29
6464;BME280;3265;42.694;23.282;2023-03-13T00:53:48;94882.31;;;1.58;64.11
6464;BME280;3265;42.694;23.282;2023-03-13T00:56:17;94873.66;;;1.51;64.33
6464;BME280;3265;42.694;23.282;2023-03-13T00:58:46;94880.84;;;1.56;63.95
6464;BME280;3265;42.694;23.282;2023-03-13T01:01:14;94872.72;;;1.60;64.53
6464;BME280;3265;42.694;23.282;2023-03-13T01:03:43;94874.31;;;1.61;64.20
6464;BME280;3265;42.694;23.282;2023-03-13T01:06:13;94878.00;;;1.67;63.56
6464;BME280;3265;42.694;23.282;2023-03-13T01:08:40;94874.97;;;1.71;63.71
6464;BME280;3265;42.694;23.282;2023-03-13T01:11:08;94868.91;;;1.73;63.66
6464;BME280;3265;42.694;23.282;2023-03-13T01:13:37;94864.56;;;1.73;63.85
6464;BME280;3265;42.694;23.282;2023-03-13T01:16:06;94869.34;;;1.76;63.75
6464;BME280;3265;42.694;23.282;2023-03-13T01:18:34;94874.97;;;1.88;62.71
6464;BME280;3265;42.694;23.282;2023-03-13T01:21:01;94869.06;;;1.87;62.94
6464;BME280;3265;42.694;23.282;2023-03-13T01:23:28;94876.75;;;1.95;63.03
6464;BME280;3265;42.694;23.282;2023-03-13T01:25:55;94884.44;;;2.03;62.09
6464;BME280;3265;42.694;23.282;2023-03-13T01:28:23;94869.38;;;1.92;62.59
6464;BME280;3265;42.694;23.282;2023-03-13T01:30:51;94890.19;;;2.05;61.90
6464;BME280;3265;42.694;23.282;2023-03-13T01:33:18;94888.91;;;2.09;62.01
6464;BME280;3265;42.694;23.282;2023-03-13T01:35:45;94891.00;;;2.14;62.61
6464;BME280;3265;42.694;23.282;2023-03-13T01:38:12;94899.16;;;2.09;62.38
6464;BME280;3265;42.694;23.282;2023-03-13T01:40:40;94897.88;;;2.05;62.71
6464;BME280;3265;42.694;23.282;2023-03-13T01:43:17;94891.31;;;2.03;62.59
6464;BME280;3265;42.694;23.282;2023-03-13T01:46:02;94892.75;;;1.97;63.00
6464;BME280;3265;42.694;23.282;2023-03-13T01:48:34;94901.06;;;1.99;63.93
6464;BME280;3265;42.694;23.282;2023-03-13T01:51:05;94893.88;;;1.95;64.01
6464;BME280;3265;42.694;23.282;2023-03-13T01:53:34;94895.19;;;1.99;64.91
6464;BME280;3265;42.694;23.282;2023-03-13T01:56:05;94893.75;;;1.96;63.66
6464;BME280;3265;42.694;23.282;2023-03-13T01:58:34;94888.75;;;1.87;64.39
6464;BME280;3265;42.694;23.282;2023-03-13T02:01:04;94905.72;;;1.80;65.43
6464;BME280;3265;42.694;23.282;2023-03-13T02:03:32;94900.09;;;1.76;66.03
6464;BME280;3265;42.694;23.282;2023-03-13T02:06:00;94889.19;;;1.58;66.71
6464;BME280;3265;42.694;23.282;2023-03-13T02:08:31;94888.38;;;1.49;68.47
6464;BME280;3265;42.694;23.282;2023-03-13T02:11:05;94892.00;;;1.31;70.78
6464;BME280;3265;42.694;23.282;2023-03-13T02:13:33;94901.09;;;1.25;72.06
6464;BME280;3265;42.694;23.282;2023-03-13T02:16:00;94903.03;;;1.23;72.43
6464;BME280;3265;42.694;23.282;2023-03-13T02:18:29;94905.41;;;1.25;73.08
6464;BME280;3265;42.694;23.282;2023-03-13T02:21:00;94892.94;;;1.22;74.99
6464;BME280;3265;42.694;23.282;2023-03-13T02:23:34;94912.03;;;1.35;74.51
6464;BME280;3265;42.694;23.282;2023-03-13T02:26:06;94912.81;;;1.36;73.82
6464;BME280;3265;42.694;23.282;2023-03-13T02:28:34;94912.84;;;1.44;73.93
6464;BME280;3265;42.694;23.282;2023-03-13T02:31:04;94919.09;;;1.49;73.88
6464;BME280;3265;42.694;23.282;2023-03-13T02:33:35;94924.38;;;1.56;74.07
6464;BME280;3265;42.694;23.282;2023-03-13T02:36:04;94927.59;;;1.58;74.48
6464;BME280;3265;42.694;23.282;2023-03-13T02:38:34;94928.25;;;1.60;73.74
6464;BME280;3265;42.694;23.282;2023-03-13T02:41:01;94922.59;;;1.48;73.68
6464;BME280;3265;42.694;23.282;2023-03-13T02:43:33;94942.81;;;1.59;73.87
6464;BME280;3265;42.694;23.282;2023-03-13T02:46:02;94931.75;;;1.51;74.32
6464;BME280;3265;42.694;23.282;2023-03-13T02:48:31;94949.97;;;1.56;74.91
6464;BME280;3265;42.694;23.282;2023-03-13T02:51:00;94953.34;;;1.56;74.88
6464;BME280;3265;42.694;23.282;2023-03-13T02:53:27;94954.16;;;1.57;73.80
6464;BME280;3265;42.694;23.282;2023-03-13T02:55:55;94956.09;;;1.55;73.55
6464;BME280;3265;42.694;23.282;2023-03-13T02:58:22;94957.81;;;1.46;73.56
6464;BME280;3265;42.694;23.282;2023-03-13T03:00:51;94946.94;;;1.44;72.72
6464;BME280;3265;42.694;23.282;2023-03-13T03:03:18;94961.34;;;1.53;72.97
6464;BME280;3265;42.694;23.282;2023-03-13T03:05:45;94946.94;;;1.44;72.68
6464;BME280;3265;42.694;23.282;2023-03-13T03:08:11;94954.78;;;1.51;72.83
6464;BME280;3265;42.694;23.282;2023-03-13T03:10:38;94949.63;;;1.35;73.93
6464;BME280;3265;42.694;23.282;2023-03-13T03:13:05;94960.50;;;1.45;73.44
6464;BME280;3265;42.694;23.282;2023-03-13T03:15:32;94973.69;;;1.50;73.17
6464;BME280;3265;42.694;23.282;2023-03-13T03:18:00;94974.91;;;1.38;74.02
6464;BME280;3265;42.694;23.282;2023-03-13T03:20:27;94978.59;;;1.35;73.76
6464;BME280;3265;42.694;23.282;2023-03-13T03:22:54;94996.63;;;1.34;73.79
6464;BME280;3265;42.694;23.282;2023-03-13T03:25:20;95001.75;;;1.34;75.21
6464;BME280;3265;42.694;23.282;2023-03-13T03:27:47;95000.28;;;1.23;76.12
6464;BME280;3265;42.694;23.282;2023-03-13T03:30:14;95002.84;;;1.23;75.55
6464;BME280;3265;42.694;23.282;2023-03-13T03:32:41;94992.59;;;1.23;75.65
6464;BME280;3265;42.694;23.282;2023-03-13T03:35:09;94975.56;;;1.06;76.44
6464;BME280;3265;42.694;23.282;2023-03-13T03:37:36;95002.94;;;1.13;76.69
6464;BME280;3265;42.694;23.282;2023-03-13T03:40:04;95001.16;;;1.06;77.01
6464;BME280;3265;42.694;23.282;2023-03-13T03:42:31;95008.53;;;1.09;77.32
6464;BME280;3265;42.694;23.282;2023-03-13T03:44:58;95027.53;;;1.06;77.24
6464;BME280;3265;42.694;23.282;2023-03-13T03:47:24;95040.03;;;1.09;77.49
6464;BME280;3265;42.694;23.282;2023-03-13T03:49:51;95033.50;;;1.15;76.62
6464;BME280;3265;42.694;23.282;2023-03-13T03:52:19;95040.63;;;1.03;77.62
6464;BME280;3265;42.694;23.282;2023-03-13T03:54:46;95032.44;;;1.00;77.18
6464;BME280;3265;42.694;23.282;2023-03-13T03:57:13;95030.47;;;0.94;77.63
6464;BME280;3265;42.694;23.282;2023-03-13T03:59:40;95033.22;;;0.92;77.91
6464;BME280;3265;42.694;23.282;2023-03-13T04:02:07;95046.34;;;0.97;77.67
6464;BME280;3265;42.694;23.282;2023-03-13T04:04:34;95044.72;;;0.96;77.43
6464;BME280;3265;42.694;23.282;2023-03-13T04:07:01;95045.38;;;0.98;77.27
6464;BME280;3265;42.694;23.282;2023-03-13T04:09:29;95042.41;;;0.85;77.97
6464;BME280;3265;42.694;23.282;2023-03-13T04:11:56;95057.47;;;0.88;77.78
6464;BME280;3265;42.694;23.282;2023-03-13T04:14:23;95052.94;;;0.82;78.24
6464;BME280;3265;42.694;23.282;2023-03-13T04:16:50;95064.56;;;0.94;78.53
6464;BME280;3265;42.694;23.282;2023-03-13T04:19:17;95069.31;;;0.89;78.41
6464;BME280;3265;42.694;23.282;2023-03-13T04:21:43;95068.69;;;0.95;79.36
6464;BME280;3265;42.694;23.282;2023-03-13T04:24:10;95062.81;;;0.95;78.86
6464;BME280;3265;42.694;23.282;2023-03-13T04:26:39;95072.44;;;1.01;78.86
6464;BME280;3265;42.694;23.282;2023-03-13T04:29:05;95076.44;;;1.03;78.17
6464;BME280;3265;42.694;23.282;2023-03-13T04:31:32;95075.59;;;0.95;79.04
6464;BME280;3265;42.694;23.282;2023-03-13T04:33:59;95087.41;;;0.96;78.53
6464;BME280;3265;42.694;23.282;2023-03-13T04:36:26;95092.81;;;0.93;79.45
6464;BME280;3265;42.694;23.282;2023-03-13T04:38:53;95106.34;;;0.85;79.30
6464;BME280;3265;42.694;23.282;2023-03-13T04:41:19;95105.25;;;0.88;79.41
6464;BME280;3265;42.694;23.282;2023-03-13T04:43:47;95106.06;;;0.88;80.01
6464;BME280;3265;42.694;23.282;2023-03-13T04:46:14;95095.38;;;0.75;79.93
6464;BME280;3265;42.694;23.282;2023-03-13T04:48:41;95101.47;;;0.74;80.05
6464;BME280;3265;42.694;23.282;2023-03-13T04:51:08;95110.81;;;0.83;80.33
6464;BME280;3265;42.694;23.282;2023-03-13T04:53:35;95106.06;;;0.71;80.23
6464;BME280;3265;42.694;23.282;2023-03-13T04:56:02;95111.72;;;0.74;79.95
6464;BME280;3265;42.694;23.282;2023-03-13T04:58:29;95111.34;;;0.69;80.64
6464;BME280;3265;42.694;23.282;2023-03-13T05:00:57;95117.53;;;0.67;80.69
6464;BME280;3265;42.694;23.282;2023-03-13T05:03:24;95115.25;;;0.64;80.97
6464;BME280;3265;42.694;23.282;2023-03-13T05:05:51;95110.25;;;0.72;80.58
6464;BME280;3265;42.694;23.282;2023-03-13T05:08:17;95103.44;;;0.80;79.30
6464;BME280;3265;42.694;23.282;2023-03-13T05:10:45;95103.22;;;0.74;80.19
6464;BME280;3265;42.694;23.282;2023-03-13T05:13:12;95119.78;;;0.70;79.95
6464;BME280;3265;42.694;23.282;2023-03-13T05:15:39;95125.19;;;0.67;80.30
6464;BME280;3265;42.694;23.282;2023-03-13T05:18:07;95131.19;;;0.75;81.44
6464;BME280;3265;42.694;23.282;2023-03-13T05:20:34;95130.41;;;0.75;82.17
6464;BME280;3265;42.694;23.282;2023-03-13T05:23:01;95114.50;;;0.63;82.52
6464;BME280;3265;42.694;23.282;2023-03-13T05:25:28;95133.41;;;0.88;82.14
6464;BME280;3265;42.694;23.282;2023-03-13T05:27:55;95142.22;;;0.93;81.58
6464;BME280;3265;42.694;23.282;2023-03-13T05:30:22;95145.59;;;0.94;80.69
6464;BME280;3265;42.694;23.282;2023-03-13T05:32:49;95147.13;;;1.04;79.93
6464;BME280;3265;42.694;23.282;2023-03-13T05:35:17;95145.38;;;1.05;78.51
6464;BME280;3265;42.694;23.282;2023-03-13T05:37:44;95146.63;;;1.01;78.67
6464;BME280;3265;42.694;23.282;2023-03-13T05:40:12;95142.75;;;0.97;78.66
6464;BME280;3265;42.694;23.282;2023-03-13T05:42:41;95142.97;;;1.03;79.19
6464;BME280;3265;42.694;23.282;2023-03-13T05:45:09;95151.00;;;1.08;78.85
6464;BME280;3265;42.694;23.282;2023-03-13T05:47:36;95155.19;;;1.09;78.99
6464;BME280;3265;42.694;23.282;2023-03-13T05:50:05;95160.94;;;1.11;78.21
6464;BME280;3265;42.694;23.282;2023-03-13T05:52:33;95163.84;;;1.17;77.82
6464;BME280;3265;42.694;23.282;2023-03-13T05:55:00;95167.06;;;1.19;77.56
6464;BME280;3265;42.694;23.282;2023-03-13T05:57:27;95159.75;;;1.24;77.58
6464;BME280;3265;42.694;23.282;2023-03-13T05:59:55;95159.25;;;1.20;77.64
6464;BME280;3265;42.694;23.282;2023-03-13T06:02:22;95175.31;;;1.30;77.87
6464;BME280;3265;42.694;23.282;2023-03-13T06:04:49;95183.81;;;1.31;78.23
6464;BME280;3265;42.694;23.282;2023-03-13T06:07:15;95179.03;;;1.36;78.08
6464;BME280;3265;42.694;23.282;2023-03-13T06:09:44;95176.84;;;1.41;76.63
6464;BME280;3265;42.694;23.282;2023-03-13T06:12:11;95171.44;;;1.44;75.46
6464;BME280;3265;42.694;23.282;2023-03-13T06:14:38;95165.72;;;1.50;74.88
6464;BME280;3265;42.694;23.282;2023-03-13T06:17:05;95170.84;;;1.50;74.95
6464;BME280;3265;42.694;23.282;2023-03-13T06:19:32;95172.84;;;1.38;75.08
6464;BME280;3265;42.694;23.282;2023-03-13T06:21:59;95171.72;;;1.41;74.52
6464;BME280;3265;42.694;23.282;2023-03-13T06:24:26;95167.41;;;1.41;73.77
6464;BME280;3265;42.694;23.282;2023-03-13T06:26:54;95177.50;;;1.43;74.03
6464;BME280;3265;42.694;23.282;2023-03-13T06:29:21;95164.91;;;1.49;73.59
6464;BME280;3265;42.694;23.282;2023-03-13T06:31:48;95177.28;;;1.62;73.29
6464;BME280;3265;42.694;23.282;2023-03-13T06:34:16;95140.41;;;1.47;73.51
6464;BME280;3265;42.694;23.282;2023-03-13T06:36:43;95157.22;;;1.75;71.76
6464;BME280;3265;42.694;23.282;2023-03-13T06:39:11;95154.44;;;1.68;70.20
6464;BME280;3265;42.694;23.282;2023-03-13T06:41:38;95159.19;;;1.55;71.21
6464;BME280;3265;42.694;23.282;2023-03-13T06:44:06;95170.59;;;1.61;72.13
6464;BME280;3265;42.694;23.282;2023-03-13T06:46:33;95179.56;;;1.65;73.02
6464;BME280;3265;42.694;23.282;2023-03-13T06:48:59;95164.25;;;1.73;70.14
6464;BME280;3265;42.694;23.282;2023-03-13T06:51:29;95160.91;;;1.73;70.05
6464;BME280;3265;42.694;23.282;2023-03-13T06:53:55;95174.91;;;1.86;69.94
6464;BME280;3265;42.694;23.282;2023-03-13T06:56:22;95171.56;;;1.94;69.12
6464;BME280;3265;42.694;23.282;2023-03-13T06:58:49;95172.41;;;2.02;69.97
6464;BME280;3265;42.694;23.282;2023-03-13T07:01:18;95174.84;;;2.12;69.26
6464;BME280;3265;42.694;23.282;2023-03-13T07:03:46;95162.53;;;2.15;68.07
6464;BME280;3265;42.694;23.282;2023-03-13T07:06:13;95165.31;;;2.22;67.37
6464;BME280;3265;42.694;23.282;2023-03-13T07:08:40;95166.09;;;2.22;67.73
6464;BME280;3265;42.694;23.282;2023-03-13T07:11:10;95151.13;;;2.02;68.69
6464;BME280;3265;42.694;23.282;2023-03-13T07:13:39;95162.47;;;1.99;68.44
6464;BME280;3265;42.694;23.282;2023-03-13T07:16:08;95167.34;;;2.10;68.96
6464;BME280;3265;42.694;23.282;2023-03-13T07:18:37;95162.84;;;2.12;69.27
6464;BME280;3265;42.694;23.282;2023-03-13T07:21:06;95158.88;;;2.18;68.07
6464;BME280;3265;42.694;23.282;2023-03-13T07:23:35;95149.41;;;2.18;68.56
6464;BME280;3265;42.694;23.282;2023-03-13T07:26:04;95155.22;;;2.28;67.81
6464;BME280;3265;42.694;23.282;2023-03-13T07:28:32;95156.03;;;2.37;69.11
6464;BME280;3265;42.694;23.282;2023-03-13T07:31:03;95151.44;;;2.49;69.08
6464;BME280;3265;42.694;23.282;2023-03-13T07:33:30;95152.44;;;2.64;67.76
6464;BME280;3265;42.694;23.282;2023-03-13T07:35:59;95156.63;;;2.65;67.65
6464;BME280;3265;42.694;23.282;2023-03-13T07:38:25;95159.19;;;2.73;66.06
6464;BME280;3265;42.694;23.282;2023-03-13T07:40:54;95153.13;;;2.74;65.32
6464;BME280;3265;42.694;23.282;2023-03-13T07:43:22;95156.63;;;2.81;64.96
6464;BME280;3265;42.694;23.282;2023-03-13T07:45:51;95164.84;;;2.84;66.17
6464;BME280;3265;42.694;23.282;2023-03-13T07:48:18;95162.59;;;2.90;68.98
6464;BME280;3265;42.694;23.282;2023-03-13T07:50:45;95120.84;;;2.71;68.31
6464;BME280;3265;42.694;23.282;2023-03-13T07:53:14;95155.25;;;3.11;66.99
6464;BME280;3265;42.694;23.282;2023-03-13T07:55:55;95160.06;;;3.14;64.24
6464;BME280;3265;42.694;23.282;2023-03-13T07:58:26;95149.28;;;3.10;63.88
6464;BME280;3265;42.694;23.282;2023-03-13T08:00:53;95150.91;;;3.11;63.32
6464;BME280;3265;42.694;23.282;2023-03-13T08:03:21;95148.34;;;3.11;64.07
6464;BME280;3265;42.694;23.282;2023-03-13T08:05:56;95141.91;;;3.15;62.75
6464;BME280;3265;42.694;23.282;2023-03-13T08:08:25;95149.78;;;3.14;65.24
6464;BME280;3265;42.694;23.282;2023-03-13T08:10:51;95131.31;;;3.18;64.39
6464;BME280;3265;42.694;23.282;2023-03-13T08:13:19;95137.25;;;3.35;64.47
6464;BME280;3265;42.694;23.282;2023-03-13T08:15:45;95141.41;;;3.52;63.75
6464;BME280;3265;42.694;23.282;2023-03-13T08:18:12;95151.50;;;3.62;61.76
6464;BME280;3265;42.694;23.282;2023-03-13T08:20:39;95142.19;;;3.69;62.45
6464;BME280;3265;42.694;23.282;2023-03-13T08:23:06;95145.22;;;3.80;60.97
6464;BME280;3265;42.694;23.282;2023-03-13T08:25:34;95147.44;;;3.91;60.75
6464;BME280;3265;42.694;23.282;2023-03-13T08:28:01;95150.50;;;3.95;59.92
6464;BME280;3265;42.694;23.282;2023-03-13T08:30:27;95156.53;;;4.10;58.98
6464;BME280;3265;42.694;23.282;2023-03-13T08:32:54;95152.41;;;4.01;58.79
6464;BME280;3265;42.694;23.282;2023-03-13T08:35:21;95151.28;;;4.04;58.53
6464;BME280;3265;42.694;23.282;2023-03-13T08:37:48;95156.69;;;4.17;59.05
6464;BME280;3265;42.694;23.282;2023-03-13T08:40:15;95156.97;;;4.22;59.63
6464;BME280;3265;42.694;23.282;2023-03-13T08:42:43;95156.94;;;4.38;58.86
6464;BME280;3265;42.694;23.282;2023-03-13T08:45:10;95153.31;;;4.55;57.91
6464;BME280;3265;42.694;23.282;2023-03-13T08:47:37;95150.34;;;4.66;58.33
6464;BME280;3265;42.694;23.282;2023-03-13T08:50:04;95151.38;;;4.80;56.93
6464;BME280;3265;42.694;23.282;2023-03-13T08:52:31;95143.19;;;4.84;57.04
6464;BME280;3265;42.694;23.282;2023-03-13T08:54:58;95146.50;;;4.93;56.98
6464;BME280;3265;42.694;23.282;2023-03-13T08:57:25;95152.13;;;5.19;57.03
6464;BME280;3265;42.694;23.282;2023-03-13T08:59:53;95152.31;;;5.32;55.69
6464;BME280;3265;42.694;23.282;2023-03-13T09:02:20;95145.91;;;5.51;54.94
6464;BME280;3265;42.694;23.282;2023-03-13T09:04:47;95161.47;;;5.72;54.80
6464;BME280;3265;42.694;23.282;2023-03-13T09:07:14;95104.13;;;5.55;53.47
6464;BME280;3265;42.694;23.282;2023-03-13T09:09:44;95165.00;;;5.94;52.68
6464;BME280;3265;42.694;23.282;2023-03-13T09:12:11;95126.41;;;5.86;53.31
6464;BME280;3265;42.694;23.282;2023-03-13T09:14:38;95152.03;;;6.31;52.12
6464;BME280;3265;42.694;23.282;2023-03-13T09:17:10;95108.75;;;6.33;51.25
6464;BME280;3265;42.694;23.282;2023-03-13T09:19:37;95119.59;;;6.58;50.68
6464;BME280;3265;42.694;23.282;2023-03-13T09:22:04;95112.38;;;6.89;50.20
6464;BME280;3265;42.694;23.282;2023-03-13T09:24:31;95148.63;;;7.38;49.64
6464;BME280;3265;42.694;23.282;2023-03-13T09:26:58;95145.66;;;7.69;48.75
6464;BME280;3265;42.694;23.282;2023-03-13T09:29:25;95146.91;;;7.73;48.57
6464;BME280;3265;42.694;23.282;2023-03-13T09:31:52;95144.91;;;8.02;48.11
6464;BME280;3265;42.694;23.282;2023-03-13T09:34:23;95156.97;;;8.51;47.43
6464;BME280;3265;42.694;23.282;2023-03-13T09:36:50;95148.66;;;8.69;46.70
6464;BME280;3265;42.694;23.282;2023-03-13T09:39:17;95143.75;;;8.93;46.64
6464;BME280;3265;42.694;23.282;2023-03-13T09:41:53;95148.78;;;9.21;45.01
6464;BME280;3265;42.694;23.282;2023-03-13T09:44:26;95142.84;;;9.40;44.75
6464;BME280;3265;42.694;23.282;2023-03-13T09:46:59;95138.25;;;9.62;43.98
6464;BME280;3265;42.694;23.282;2023-03-13T09:49:33;95141.06;;;9.74;42.78
6464;BME280;3265;42.694;23.282;2023-03-13T09:52:14;95143.66;;;9.87;42.27
6464;BME280;3265;42.694;23.282;2023-03-13T09:54:47;95139.84;;;10.02;42.48
6464;BME280;3265;42.694;23.282;2023-03-13T09:57:19;95138.59;;;10.44;42.71
6464;BME280;3265;42.694;23.282;2023-03-13T09:59:52;95134.22;;;10.82;41.30
6464;BME280;3265;42.694;23.282;2023-03-13T10:02:35;95143.50;;;11.03;41.04
6464;BME280;3265;42.694;23.282;2023-03-13T10:05:09;95117.63;;;11.15;39.97
6464;BME280;3265;42.694;23.282;2023-03-13T10:07:39;95141.38;;;11.56;40.12
6464;BME280;3265;42.694;23.282;2023-03-13T10:10:11;95141.13;;;11.89;39.52
6464;BME280;3265;42.694;23.282;2023-03-13T10:12:43;95132.38;;;12.08;38.51
6464;BME280;3265;42.694;23.282;2023-03-13T10:15:29;95120.34;;;12.07;38.20
6464;BME280;3265;42.694;23.282;2023-03-13T10:17:59;95123.41;;;12.40;37.62
6464;BME280;3265;42.694;23.282;2023-03-13T10:20:38;95099.97;;;12.40;37.00
6464;BME280;3265;42.694;23.282;2023-03-13T10:23:13;95110.66;;;12.69;37.25
6464;BME280;3265;42.694;23.282;2023-03-13T10:25:41;95106.84;;;12.83;40.38
6464;BME280;3265;42.694;23.282;2023-03-13T10:28:11;95107.47;;;12.67;36.30
6464;BME280;3265;42.694;23.282;2023-03-13T10:30:42;95095.16;;;12.56;36.71
6464;BME280;3265;42.694;23.282;2023-03-13T10:33:21;95102.84;;;12.50;36.01
6464;BME280;3265;42.694;23.282;2023-03-13T10:36:00;95092.22;;;12.52;36.47
6464;BME280;3265;42.694;23.282;2023-03-13T10:38:27;95094.06;;;12.63;36.32
6464;BME280;3265;42.694;23.282;2023-03-13T10:40:59;95088.97;;;13.16;36.55
6464;BME280;3265;42.694;23.282;2023-03-13T10:43:27;95081.56;;;13.54;35.66
6464;BME280;3265;42.694;23.282;2023-03-13T10:45:54;95082.50;;;13.83;34.51
6464;BME280;3265;42.694;23.282;2023-03-13T10:48:23;95071.03;;;13.96;34.37
6464;BME280;3265;42.694;23.282;2023-03-13T10:50:52;95077.25;;;14.18;34.36
6464;BME280;3265;42.694;23.282;2023-03-13T10:53:33;95063.25;;;14.47;33.97
6464;BME280;3265;42.694;23.282;2023-03-13T10:56:07;95076.97;;;14.66;33.75
6464;BME280;3265;42.694;23.282;2023-03-13T10:58:40;95063.97;;;14.71;33.73
6464;BME280;3265;42.694;23.282;2023-03-13T11:01:19;95060.84;;;14.86;33.76
6464;BME280;3265;42.694;23.282;2023-03-13T11:03:48;95044.78;;;15.27;33.92
6464;BME280;3265;42.694;23.282;2023-03-13T11:06:29;95042.94;;;15.72;33.03
6464;BME280;3265;42.694;23.282;2023-03-13T11:09:06;95055.03;;;16.12;31.53
6464;BME280;3265;42.694;23.282;2023-03-13T11:11:48;95049.34;;;16.20;31.37
6464;BME280;3265;42.694;23.282;2023-03-13T11:14:20;95044.19;;;16.46;31.44
6464;BME280;3265;42.694;23.282;2023-03-13T11:16:49;95039.97;;;16.45;31.90
6464;BME280;3265;42.694;23.282;2023-03-13T11:19:36;95041.78;;;16.88;30.54
6464;BME280;3265;42.694;23.282;2023-03-13T11:22:25;95048.50;;;17.01;30.68
6464;BME280;3265;42.694;23.282;2023-03-13T11:25:12;95045.53;;;17.19;30.22
6464;BME280;3265;42.694;23.282;2023-03-13T11:27:45;95041.78;;;17.42;29.94
6464;BME280;3265;42.694;23.282;2023-03-13T11:30:24;95036.31;;;17.17;29.65
6464;BME280;3265;42.694;23.282;2023-03-13T11:33:00;95026.66;;;16.95;30.31
6464;BME280;3265;42.694;23.282;2023-03-13T11:35:36;95025.81;;;17.17;30.25
6464;BME280;3265;42.694;23.282;2023-03-13T11:38:08;95022.53;;;17.31;29.67
6464;BME280;3265;42.694;23.282;2023-03-13T11:40:49;95021.75;;;17.36;29.42
6464;BME280;3265;42.694;23.282;2023-03-13T11:43:28;95008.41;;;17.42;29.10
6464;BME280;3265;42.694;23.282;2023-03-13T11:46:07;95011.91;;;17.53;29.20
6464;BME280;3265;42.694;23.282;2023-03-13T11:48:58;95005.69;;;18.06;28.43
6464;BME280;3265;42.694;23.282;2023-03-13T11:51:33;95000.34;;;18.43;28.05
6464;BME280;3265;42.694;23.282;2023-03-13T11:54:22;94994.94;;;18.12;27.38
6464;BME280;3265;42.694;23.282;2023-03-13T11:56:56;94986.88;;;17.45;28.88
6464;BME280;3265;42.694;23.282;2023-03-13T11:59:34;94975.28;;;17.41;29.11
6464;BME280;3265;42.694;23.282;2023-03-13T12:02:14;94970.31;;;17.82;29.32
6464;BME280;3265;42.694;23.282;2023-03-13T12:04:47;94959.34;;;17.95;28.59
6464;BME280;3265;42.694;23.282;2023-03-13T12:07:19;94962.53;;;18.07;28.13
6464;BME280;3265;42.694;23.282;2023-03-13T12:09:51;94962.78;;;18.67;28.52
6464;BME280;3265;42.694;23.282;2023-03-13T12:12:30;94964.44;;;19.04;28.14
6464;BME280;3265;42.694;23.282;2023-03-13T12:15:05;94968.66;;;19.55;27.37
6464;BME280;3265;42.694;23.282;2023-03-13T12:17:36;94959.69;;;19.26;26.14
6464;BME280;3265;42.694;23.282;2023-03-13T12:20:10;94959.97;;;19.24;27.07
6464;BME280;3265;42.694;23.282;2023-03-13T12:22:43;94962.84;;;19.63;26.62
6464;BME280;3265;42.694;23.282;2023-03-13T12:25:16;94957.81;;;19.82;26.16
6464;BME280;3265;42.694;23.282;2023-03-13T12:27:50;94952.22;;;19.89;25.71
6464;BME280;3265;42.694;23.282;2023-03-13T12:30:23;94962.22;;;20.02;25.81
6464;BME280;3265;42.694;23.282;2023-03-13T12:32:58;94943.44;;;20.28;25.55
6464;BME280;3265;42.694;23.282;2023-03-13T12:35:32;94889.34;;;20.16;25.18
6464;BME280;3265;42.694;23.282;2023-03-13T12:38:05;94933.75;;;20.63;25.16
6464;BME280;3265;42.694;23.282;2023-03-13T12:43:38;94951.16;;;20.69;24.79
6464;BME280;3265;42.694;23.282;2023-03-13T12:46:34;94897.59;;;19.99;24.71
6464;BME280;3265;42.694;23.282;2023-03-13T12:49:28;94950.66;;;19.88;25.06
6464;BME280;3265;42.694;23.282;2023-03-13T12:52:32;94906.19;;;19.41;25.64
6464;BME280;3265;42.694;23.282;2023-03-13T12:55:26;94899.72;;;19.92;25.62
6464;BME280;3265;42.694;23.282;2023-03-13T13:01:04;94960.72;;;21.66;24.54
6464;BME280;3265;42.694;23.282;2023-03-13T13:03:33;94968.06;;;21.74;24.20
6464;BME280;3265;42.694;23.282;2023-03-13T13:06:06;94965.75;;;22.20;23.96
6464;BME280;3265;42.694;23.282;2023-03-13T13:08:38;94956.91;;;22.72;23.74
6464;BME280;3265;42.694;23.282;2023-03-13T13:11:34;94964.28;;;23.12;22.33
6464;BME280;3265;42.694;23.282;2023-03-13T13:17:22;94958.78;;;23.60;22.45
6464;BME280;3265;42.694;23.282;2023-03-13T13:19:52;94940.09;;;23.65;22.04
6464;BME280;3265;42.694;23.282;2023-03-13T13:22:47;94959.13;;;23.86;20.94
6464;BME280;3265;42.694;23.282;2023-03-13T13:25:32;94955.97;;;23.19;22.29
6464;BME280;3265;42.694;23.282;2023-03-13T13:28:21;94953.72;;;23.26;21.88
6464;BME280;3265;42.694;23.282;2023-03-13T13:30:52;94953.56;;;23.55;22.48
6464;BME280;3265;42.694;23.282;2023-03-13T13:33:38;94948.56;;;23.35;22.36
6464;BME280;3265;42.694;23.282;2023-03-13T13:36:28;94948.66;;;23.62;22.12
6464;BME280;3265;42.694;23.282;2023-03-13T13:38:56;94952.59;;;23.78;22.12
6464;BME280;3265;42.694;23.282;2023-03-13T13:41:34;94940.63;;;23.81;21.49
6464;BME280;3265;42.694;23.282;2023-03-13T13:44:24;94944.78;;;24.14;21.24
6464;BME280;3265;42.694;23.282;2023-03-13T13:46:52;94949.97;;;24.60;21.13